createdAt,value
2022-07-30T00:03:15.296Z,965.09
2022-07-30T00:08:15.309Z,965.10
2022-07-30T00:13:15.137Z,965.07
2022-07-30T00:18:15.065Z,964.99
2022-07-30T00:23:15.011Z,964.95
2022-07-30T00:28:14.972Z,964.93
2022-07-30T00:33:14.869Z,964.93
2022-07-30T00:38:14.809Z,964.86
2022-07-30T00:43:14.743Z,964.78
2022-07-30T00:48:14.681Z,964.83
2022-07-30T00:53:14.633Z,964.83
2022-07-30T00:58:14.600Z,964.81
2022-07-30T01:03:14.512Z,964.84
2022-07-30T01:08:14.434Z,964.86
2022-07-30T01:13:14.377Z,964.81
2022-07-30T01:18:14.317Z,964.80
2022-07-30T01:23:14.259Z,964.76
2022-07-30T01:28:14.195Z,964.86
2022-07-30T01:33:14.133Z,964.87
2022-07-30T01:38:14.049Z,964.85
2022-07-30T01:43:14.026Z,964.84
2022-07-30T01:48:13.941Z,964.87
2022-07-30T01:53:13.866Z,964.81
2022-07-30T01:58:13.814Z,964.79
2022-07-30T02:03:13.786Z,964.79
2022-07-30T02:08:13.671Z,964.77
2022-07-30T02:13:13.615Z,964.73
2022-07-30T02:18:13.543Z,964.66
2022-07-30T02:23:13.499Z,964.65
2022-07-30T02:28:13.411Z,964.68
2022-07-30T02:33:13.358Z,964.71
2022-07-30T02:38:13.273Z,964.71
2022-07-30T02:43:13.230Z,964.75
2022-07-30T02:48:13.172Z,964.69
2022-07-30T02:53:14.091Z,964.71
2022-07-30T02:58:13.021Z,964.71
2022-07-30T03:03:12.953Z,964.80
2022-07-30T03:08:12.890Z,964.71
2022-07-30T03:13:13.814Z,964.78
2022-07-30T03:18:12.759Z,964.80
2022-07-30T03:23:12.688Z,964.69
2022-07-30T03:28:12.622Z,964.70
2022-07-30T03:33:12.578Z,964.72
2022-07-30T03:38:12.675Z,964.69
2022-07-30T03:43:32.377Z,964.78
2022-07-30T03:48:13.370Z,964.77
2022-07-30T03:53:12.323Z,964.81
2022-07-30T03:58:12.242Z,964.88
2022-07-30T04:03:12.176Z,964.89
2022-07-30T04:08:12.113Z,964.94
2022-07-30T04:13:12.043Z,964.89
2022-07-30T04:18:11.972Z,964.99
2022-07-30T04:23:11.920Z,965.05
2022-07-30T04:28:11.856Z,964.99
2022-07-30T04:33:11.791Z,965.05
2022-07-30T04:38:11.719Z,965.07
2022-07-30T04:43:11.651Z,965.15
2022-07-30T04:48:11.591Z,965.10
2022-07-30T04:53:11.587Z,965.10
2022-07-30T04:58:11.463Z,965.15
2022-07-30T05:03:11.388Z,965.20
2022-07-30T05:08:11.512Z,965.21
2022-07-30T05:13:11.312Z,965.20
2022-07-30T05:18:11.197Z,965.24
2022-07-30T05:23:11.134Z,965.26
2022-07-30T05:28:11.086Z,965.29
2022-07-30T05:33:11.003Z,965.36
2022-07-30T05:38:10.958Z,965.35
2022-07-30T05:43:10.882Z,965.43
2022-07-30T05:48:10.812Z,965.51
2022-07-30T05:53:10.754Z,965.50
2022-07-30T05:58:10.812Z,965.50
2022-07-30T06:03:10.667Z,965.57
2022-07-30T06:08:10.588Z,965.66
2022-07-30T06:13:10.514Z,965.59
2022-07-30T06:18:10.460Z,965.65
2022-07-30T06:27:05.031Z,965.66
2022-07-30T06:32:04.686Z,965.66
2022-07-30T06:37:04.637Z,965.67
2022-07-30T06:42:04.581Z,965.63
2022-07-30T06:47:07.900Z,965.72
2022-07-30T06:52:04.456Z,965.74
2022-07-30T06:57:04.480Z,965.81
2022-07-30T07:02:04.337Z,965.87
2022-07-30T07:07:12.443Z,965.89
2022-07-30T07:12:05.386Z,965.91
2022-07-30T07:17:04.411Z,965.86
2022-07-30T07:22:04.112Z,965.88
2022-07-30T07:27:04.105Z,965.88
2022-07-30T07:32:07.623Z,965.87
2022-07-30T07:37:04.032Z,965.92
2022-07-30T07:42:03.830Z,965.91
2022-07-30T07:47:03.858Z,965.89
2022-07-30T07:52:03.686Z,965.87
2022-07-30T07:57:04.447Z,965.82
2022-07-30T08:02:03.809Z,965.83
2022-07-30T08:07:04.054Z,965.84
2022-07-30T08:12:03.438Z,965.86
2022-07-30T08:17:03.584Z,965.88
2022-07-30T08:22:03.310Z,965.87
2022-07-30T08:27:03.648Z,965.87
2022-07-30T08:32:03.600Z,965.84
2022-07-30T08:37:03.131Z,965.87
2022-07-30T08:42:03.348Z,965.93
2022-07-30T08:47:03.441Z,965.93
2022-07-30T08:52:03.285Z,965.92
2022-07-30T08:57:02.895Z,965.96
2022-07-30T09:02:03.634Z,965.95
2022-07-30T09:07:03.096Z,965.98
2022-07-30T09:12:02.700Z,965.98
2022-07-30T09:17:03.033Z,965.99
2022-07-30T09:22:02.580Z,965.99
2022-07-30T09:27:02.872Z,965.95
2022-07-30T09:32:02.693Z,965.99
2022-07-30T09:37:02.414Z,966.01
2022-07-30T09:42:02.602Z,965.95
2022-07-30T09:47:02.287Z,965.96
2022-07-30T09:52:02.680Z,965.95
2022-07-30T09:57:02.156Z,965.99
2022-07-30T10:02:04.102Z,966.06
2022-07-30T10:07:02.041Z,966.04
2022-07-30T10:12:02.672Z,966.01
2022-07-30T10:17:02.932Z,965.98
2022-07-30T10:22:01.968Z,965.95
2022-07-30T10:27:02.020Z,965.99
2022-07-30T10:32:01.731Z,966.00
2022-07-30T10:37:02.052Z,965.91
2022-07-30T10:42:01.615Z,965.86
2022-07-30T10:47:06.541Z,965.87
2022-07-30T10:52:02.477Z,965.80
2022-07-30T10:57:01.669Z,965.74
2022-07-30T11:02:01.687Z,965.81
2022-07-30T11:07:01.286Z,965.71
2022-07-30T11:12:06.358Z,965.75
2022-07-30T11:17:02.159Z,965.74
2022-07-30T11:22:01.349Z,965.70
2022-07-30T11:27:01.076Z,965.59
2022-07-30T11:32:03.998Z,965.55
2022-07-30T11:37:01.938Z,965.62
2022-07-30T11:42:02.103Z,965.62
2022-07-30T11:47:00.808Z,965.58
2022-07-30T11:52:00.919Z,965.58
2022-07-30T11:57:04.435Z,965.71
2022-07-30T12:02:01.059Z,965.73
2022-07-30T12:07:00.798Z,965.72
2022-07-30T12:12:00.891Z,965.83
2022-07-30T12:17:00.738Z,965.78
2022-07-30T12:22:00.428Z,965.75
2022-07-30T12:27:00.607Z,965.83
2022-07-30T12:32:00.271Z,965.84
2022-07-30T12:37:00.454Z,965.95
2022-07-30T12:42:00.168Z,965.79
2022-07-30T12:47:00.235Z,965.85
2022-07-30T12:52:00.752Z,965.86
2022-07-30T12:57:00.422Z,965.86
2022-07-30T13:02:00.241Z,965.90
2022-07-30T13:07:00.205Z,965.84
2022-07-30T13:11:59.853Z,965.81
2022-07-30T13:16:59.967Z,965.81
2022-07-30T13:21:59.676Z,965.67
2022-07-30T13:26:59.607Z,965.74
2022-07-30T13:31:59.557Z,965.77
2022-07-30T13:36:59.662Z,965.72
2022-07-30T13:41:59.489Z,965.74
2022-07-30T13:47:01.843Z,965.66
2022-07-30T13:51:59.380Z,965.63
2022-07-30T13:56:59.564Z,965.72
2022-07-30T14:01:59.267Z,965.66
2022-07-30T14:06:59.371Z,965.68
2022-07-30T14:11:59.089Z,965.70
2022-07-30T14:16:59.114Z,965.74
2022-07-30T14:21:58.965Z,965.66
2022-07-30T14:26:58.981Z,965.71
2022-07-30T14:31:58.859Z,965.72
2022-07-30T14:36:58.756Z,965.83
2022-07-30T14:41:58.713Z,965.84
2022-07-30T14:46:58.644Z,965.89
2022-07-30T14:51:58.585Z,965.93
2022-07-30T14:56:58.788Z,965.97
2022-07-30T15:01:58.499Z,965.92
2022-07-30T15:06:58.385Z,965.97
2022-07-30T15:12:08.560Z,966.02
2022-07-30T15:17:04.000Z,966.10
2022-07-30T15:21:59.356Z,966.13
2022-07-30T15:26:58.147Z,966.19
2022-07-30T15:31:58.092Z,966.47
2022-07-30T15:36:58.022Z,966.77
2022-07-30T15:41:57.954Z,966.72
2022-07-30T15:46:57.896Z,966.61
2022-07-30T15:51:57.849Z,966.63
2022-07-30T15:57:01.000Z,966.72
2022-07-30T16:01:58.044Z,966.65
2022-07-30T16:06:57.662Z,966.74
2022-07-30T16:11:57.614Z,966.78
2022-07-30T16:16:57.537Z,966.81
2022-07-30T16:21:57.463Z,966.72
2022-07-30T16:26:57.462Z,966.67
2022-07-30T16:31:57.344Z,966.71
2022-07-30T16:36:57.277Z,966.74
2022-07-30T16:41:57.221Z,966.85
2022-07-30T16:46:57.153Z,966.76
2022-07-30T16:51:57.097Z,966.78
2022-07-30T16:56:57.031Z,966.81
2022-07-30T17:01:56.990Z,966.87
2022-07-30T17:06:56.903Z,966.93
2022-07-30T17:11:59.318Z,966.96
2022-07-30T17:16:56.786Z,967.00
2022-07-30T17:21:56.737Z,966.90
2022-07-30T17:26:56.651Z,966.89
2022-07-30T17:31:56.610Z,966.84
2022-07-30T17:36:56.540Z,966.93
2022-07-30T17:42:00.979Z,966.94
2022-07-30T17:46:57.410Z,966.85
2022-07-30T17:51:56.336Z,966.88
2022-07-30T17:56:56.275Z,966.93
2022-07-30T18:01:56.228Z,966.94
2022-07-30T18:06:56.136Z,966.96
2022-07-30T18:11:56.086Z,966.98
2022-07-30T18:16:56.036Z,966.92
2022-07-30T18:21:55.971Z,966.96
2022-07-30T18:26:55.898Z,966.96
2022-07-30T18:31:55.840Z,966.93
2022-07-30T18:36:55.779Z,967.02
2022-07-30T18:41:55.721Z,967.08
2022-07-30T18:46:55.674Z,967.13
2022-07-30T18:51:55.606Z,967.13
2022-07-30T18:56:55.526Z,967.15
2022-07-30T19:01:55.487Z,967.21
2022-07-30T19:06:55.417Z,967.20
2022-07-30T19:11:55.360Z,967.27
2022-07-30T19:16:59.467Z,967.26
2022-07-30T19:21:55.216Z,967.22
2022-07-30T19:26:55.182Z,967.24
2022-07-30T19:31:55.113Z,967.28
2022-07-30T19:36:55.023Z,967.32
2022-07-30T19:41:54.977Z,967.37
2022-07-30T19:46:54.884Z,967.47
2022-07-30T19:52:10.281Z,967.49
2022-07-30T19:56:55.771Z,967.56
2022-07-30T20:01:54.698Z,967.55
2022-07-30T20:06:54.649Z,967.52
2022-07-30T20:11:54.578Z,967.55
2022-07-30T20:16:54.552Z,967.56
2022-07-30T20:21:57.534Z,967.58
2022-07-30T20:26:54.403Z,967.63
2022-07-30T20:31:54.315Z,967.61
2022-07-30T20:36:56.445Z,967.57
2022-07-30T20:41:54.223Z,967.63
2022-07-30T20:46:54.161Z,967.64
2022-07-30T20:51:55.087Z,967.66
2022-07-30T20:56:54.023Z,967.72
2022-07-30T21:01:55.704Z,967.78
2022-07-30T21:06:53.906Z,967.84
2022-07-30T21:11:53.851Z,967.85
2022-07-30T21:16:56.161Z,967.80
2022-07-30T21:21:53.733Z,967.82
2022-07-30T21:26:53.642Z,967.79
2022-07-30T21:32:02.782Z,967.78
2022-07-30T21:36:54.517Z,967.81
2022-07-30T21:41:53.634Z,967.83
2022-07-30T21:46:53.717Z,967.81
2022-07-30T21:51:53.349Z,967.78
2022-07-30T21:56:53.273Z,967.77
2022-07-30T22:01:53.248Z,967.70
2022-07-30T22:06:54.640Z,967.75
2022-07-30T22:11:53.083Z,967.78
2022-07-30T22:16:53.018Z,967.78
2022-07-30T22:21:52.972Z,967.81
2022-07-30T22:26:52.898Z,967.82
2022-07-30T22:31:52.828Z,967.80
2022-07-30T22:36:52.771Z,967.70
2022-07-30T22:41:52.721Z,967.70
2022-07-30T22:46:56.292Z,967.68
2022-07-30T22:52:06.615Z,967.72
2022-07-30T22:56:53.697Z,967.70
2022-07-30T23:01:52.556Z,967.73
2022-07-30T23:06:52.423Z,967.76
2022-07-30T23:11:52.350Z,967.79
2022-07-30T23:16:52.241Z,967.79
2022-07-30T23:21:52.173Z,967.79
2022-07-30T23:26:52.102Z,967.79
2022-07-30T23:31:52.062Z,967.76
2022-07-30T23:36:51.989Z,967.76
2022-07-30T23:41:51.937Z,967.83
2022-07-30T23:46:51.845Z,967.89
2022-07-30T23:51:51.792Z,967.90
2022-07-30T23:56:51.732Z,967.93
